Time;durP1;ratioP1;P1;durP2;ratioP2;P2;SDS_P1;SDS_P2;PMS_P1;PMS_P2;Temp;Humidity;BMP_temperature;BMP_pressure;BME280_temperature;BME280_humidity;BME280_pressure;Samples;Min_cycle;Max_cycle;Signal;HPM_P1;HPM_P2
2021/01/30 00:00:47;;;;;;;3.80;1.60;;;3.70;92.90;11.30;97562.00;;;;5050615;28;20170;-68
2021/01/30 00:03:13;;;;;;;3.20;1.43;;;3.70;92.80;11.10;97561.00;;;;5033858;28;20738;-68
2021/01/30 00:05:39;;;;;;;3.33;1.75;;;3.80;92.90;11.40;97566.00;;;;5050257;28;20206;-68
2021/01/30 00:08:06;;;;;;;3.70;1.53;;;3.80;93.30;11.10;97566.00;;;;5051337;28;20635;-68
2021/01/30 00:10:32;;;;;;;3.30;1.52;;;3.70;92.90;11.30;97572.00;;;;5050771;28;20185;-68
2021/01/30 00:12:58;;;;;;;3.13;1.20;;;3.80;92.90;11.10;97529.00;;;;5049528;28;20213;-67
2021/01/30 00:15:25;;;;;;;3.40;1.60;;;3.70;92.90;11.00;97568.00;;;;5034270;28;20189;-68
2021/01/30 00:17:51;;;;;;;3.50;1.60;;;3.80;92.90;11.30;97556.00;;;;5050164;28;20183;-68
2021/01/30 00:20:26;;;;;;;3.80;1.70;;;3.80;92.90;11.00;97552.00;;;;5049890;28;20182;-68
2021/01/30 00:22:52;;;;;;;4.25;1.83;;;3.80;92.90;11.10;97566.00;;;;5050087;28;20189;-68
2021/01/30 00:25:24;;;;;;;3.03;1.45;;;3.80;92.90;11.20;97547.00;;;;5050254;28;20178;-68
2021/01/30 00:27:49;;;;;;;3.10;1.30;;;3.80;92.90;11.30;97547.00;;;;5048959;28;20572;-68
2021/01/30 00:30:18;;;;;;;3.43;1.40;;;3.80;92.90;11.20;97563.00;;;;5050784;28;20271;-69
2021/01/30 00:32:44;;;;;;;2.97;1.40;;;3.80;92.90;11.20;97564.00;;;;5032496;28;20218;-68
2021/01/30 00:35:10;;;;;;;4.70;1.87;;;3.80;92.90;11.30;97568.00;;;;5033408;28;20182;-68
2021/01/30 00:37:36;;;;;;;2.80;1.40;;;3.80;92.90;11.30;97569.00;;;;5047703;28;20189;-68
2021/01/30 00:40:03;;;;;;;2.90;1.20;;;3.80;92.90;11.20;97566.00;;;;5049359;28;20202;-68
2021/01/30 00:42:29;;;;;;;3.28;1.10;;;3.80;92.90;11.20;97571.00;;;;5032749;28;20205;-68
2021/01/30 00:44:54;;;;;;;2.90;1.33;;;3.80;92.90;11.10;97559.00;;;;5033189;28;20233;-69
2021/01/30 00:47:21;;;;;;;2.93;1.17;;;3.80;92.90;11.10;97560.00;;;;5049273;28;20239;-68
2021/01/30 00:49:47;;;;;;;2.83;1.10;;;3.80;92.90;11.20;97568.00;;;;5049533;28;20702;-68
2021/01/30 00:52:15;;;;;;;3.67;1.30;;;3.80;92.90;11.20;97565.00;;;;5032845;28;20217;-69
2021/01/30 00:54:41;;;;;;;2.95;1.33;;;3.80;92.90;11.10;97572.00;;;;5048712;28;20805;-68
2021/01/30 00:57:06;;;;;;;3.17;1.20;;;3.80;93.00;11.20;97564.00;;;;5049626;28;20261;-69
2021/01/30 00:59:32;;;;;;;3.20;1.40;;;3.80;92.90;11.30;97568.00;;;;5049621;28;20212;-68
2021/01/30 01:01:58;;;;;;;2.77;1.20;;;3.80;92.90;11.20;97575.00;;;;5049156;28;20262;-68
2021/01/30 01:04:23;;;;;;;3.20;1.33;;;3.80;92.90;11.30;97571.00;;;;5049573;28;20193;-69
2021/01/30 01:06:49;;;;;;;3.07;1.30;;;3.80;92.90;11.20;97578.00;;;;5049565;28;20559;-68
2021/01/30 01:09:15;;;;;;;3.00;1.40;;;3.80;92.90;11.40;97586.00;;;;5049898;28;20399;-68
2021/01/30 01:11:43;;;;;;;2.97;1.20;;;3.80;92.90;11.20;97592.00;;;;5032952;28;20446;-68
2021/01/30 01:14:09;;;;;;;2.97;1.25;;;3.80;92.90;11.40;97577.00;;;;5049374;28;20193;-68
2021/01/30 01:16:34;;;;;;;3.10;1.00;;;3.80;92.90;11.30;97568.00;;;;5032791;28;20281;-68
2021/01/30 01:19:01;;;;;;;2.80;1.23;;;3.80;92.90;11.20;97566.00;;;;5032130;28;20255;-68
2021/01/30 01:21:26;;;;;;;2.90;1.10;;;3.80;92.90;11.40;97573.00;;;;5049214;28;20471;-68
2021/01/30 01:23:52;;;;;;;3.53;1.40;;;3.80;92.90;11.20;97558.00;;;;5032049;28;20226;-68
2021/01/30 01:26:18;;;;;;;3.20;1.40;;;3.80;93.00;11.20;97562.00;;;;5049707;28;20178;-69
2021/01/30 01:28:44;;;;;;;3.30;1.40;;;3.80;92.90;11.10;97562.00;;;;5031675;28;20459;-68
2021/01/30 01:31:11;;;;;;;3.83;1.83;;;3.80;93.00;11.20;97575.00;;;;5032420;28;20198;-68
2021/01/30 01:33:37;;;;;;;3.20;1.40;;;3.80;92.90;11.10;97576.00;;;;5048729;28;20420;-68
2021/01/30 01:36:04;;;;;;;3.00;1.30;;;3.80;92.90;11.00;97579.00;;;;5062361;28;20215;-68
2021/01/30 01:38:30;;;;;;;3.25;1.25;;;3.80;92.90;11.20;97570.00;;;;5051418;28;20279;-68
2021/01/30 01:40:55;;;;;;;3.00;1.43;;;3.80;92.90;11.20;97582.00;;;;5035791;28;20197;-68
2021/01/30 01:43:24;;;;;;;3.63;1.30;;;3.80;92.90;11.30;97575.00;;;;5017441;28;20296;-68
2021/01/30 01:46:11;;;;;;;3.45;1.25;;;3.80;92.90;11.30;97573.00;;;;5051745;28;20170;-68
2021/01/30 01:49:04;;;;;;;3.38;1.13;;;3.80;92.90;11.40;97522.00;;;;5069648;28;20283;-68
2021/01/30 01:51:48;;;;;;;3.00;1.25;;;3.80;92.90;11.20;97565.00;;;;5033389;28;20212;-68
2021/01/30 01:54:21;;;;;;;4.03;1.52;;;3.80;93.00;11.30;97560.00;;;;5068780;28;20601;-68
2021/01/30 01:56:50;;;;;;;2.95;1.13;;;3.80;93.30;11.20;97556.00;;;;5036189;28;20185;-68
2021/01/30 01:59:15;;;;;;;3.45;1.38;;;3.80;93.00;11.20;97553.00;;;;5034549;28;20189;-68
2021/01/30 02:01:41;;;;;;;2.80;1.17;;;3.80;93.00;11.30;97570.00;;;;5035791;28;20177;-68
2021/01/30 02:04:14;;;;;;;3.03;1.20;;;3.80;93.00;11.00;97562.00;;;;5068511;28;20197;-67
2021/01/30 02:06:45;;;;;;;2.90;1.00;;;3.80;93.00;11.30;97561.00;;;;5035222;28;20291;-67
2021/01/30 02:09:19;;;;;;;2.92;1.10;;;3.80;93.00;11.10;97562.00;;;;5035226;28;20296;-67
2021/01/30 02:12:05;;;;;;;3.40;1.33;;;3.80;93.00;11.30;97549.00;;;;5068063;28;20656;-67
2021/01/30 02:14:32;;;;;;;3.50;1.60;;;3.80;93.00;11.20;97555.00;;;;5036468;28;20714;-68
2021/01/30 02:17:16;;;;;;;2.85;1.10;;;3.80;93.00;11.30;97542.00;;;;5035760;28;20177;-68
2021/01/30 02:20:23;;;;;;;3.17;1.20;;;3.80;93.00;11.10;97557.00;;;;5035365;28;20197;-68
2021/01/30 02:23:28;;;;;;;2.80;1.08;;;3.80;93.00;11.30;97562.00;;;;5069538;28;20188;-68
2021/01/30 02:25:59;;;;;;;2.90;1.10;;;3.80;93.00;11.00;97554.00;;;;5060086;28;20212;-67
2021/01/30 02:29:05;;;;;;;3.03;0.85;;;3.80;93.00;11.20;97566.00;;;;5072441;28;20675;-68
2021/01/30 02:31:42;;;;;;;2.60;1.00;;;3.80;93.00;11.40;97554.00;;;;5073837;28;20243;-68
2021/01/30 02:34:25;;;;;;;3.42;1.40;;;3.80;93.00;11.20;97561.00;;;;5072301;28;20201;-69
2021/01/30 02:37:30;;;;;;;3.05;1.25;;;3.80;93.00;11.20;97570.00;;;;5072329;28;20181;-69
2021/01/30 02:40:07;;;;;;;3.38;1.45;;;3.80;93.00;11.20;97568.00;;;;5056886;28;20216;-69
2021/01/30 02:42:42;;;;;;;3.20;1.17;;;3.80;93.00;11.00;97561.00;;;;5040655;28;20189;-68
2021/01/30 02:45:29;;;;;;;2.70;1.00;;;3.80;93.00;11.40;97568.00;;;;5041235;28;20208;-68
2021/01/30 02:48:15;;;;;;;2.65;1.10;;;3.80;93.00;11.20;97563.00;;;;5055187;28;20254;-69
2021/01/30 02:50:46;;;;;;;2.70;1.00;;;3.80;93.00;11.10;97576.00;;;;5039568;28;20223;-68
2021/01/30 02:53:43;;;;;;;3.15;1.02;;;3.80;93.00;11.20;97559.00;;;;5023816;28;20217;-68
2021/01/30 02:56:08;;;;;;;3.30;1.60;;;3.80;93.00;11.00;97564.00;;;;5055079;28;20194;-69
2021/01/30 02:59:07;;;;;;;2.80;1.10;;;3.80;93.30;11.00;97564.00;;;;5038911;28;20286;-68
2021/01/30 03:01:35;;;;;;;2.90;1.05;;;3.80;93.00;11.20;97564.00;;;;5058493;28;20639;-69
2021/01/30 03:04:02;;;;;;;3.30;1.30;;;3.80;93.00;11.10;97566.00;;;;5022125;28;20205;-68
2021/01/30 03:06:58;;;;;;;3.13;1.35;;;3.80;93.00;11.30;97579.00;;;;5038868;28;20250;-69
2021/01/30 03:09:37;;;;;;;2.70;1.00;;;3.80;93.00;11.30;97578.00;;;;5071148;28;20197;-69
2021/01/30 03:12:05;;;;;;;3.78;1.17;;;3.80;93.00;11.00;97575.00;;;;5071984;28;20718;-68
2021/01/30 03:14:31;;;;;;;2.90;1.20;;;3.80;93.00;11.10;97567.00;;;;5072631;28;20291;-69
2021/01/30 03:16:59;;;;;;;2.93;1.17;;;3.80;93.00;11.10;97570.00;;;;5038264;28;20269;-69
2021/01/30 03:19:28;;;;;;;2.83;1.02;;;3.80;93.00;11.10;97571.00;;;;5022113;28;20606;-68
2021/01/30 03:22:09;;;;;;;2.60;1.00;;;3.80;93.30;11.30;97567.00;;;;5038659;28;20216;-69
2021/01/30 03:24:39;;;;;;;3.17;1.10;;;3.80;93.00;11.00;97560.00;;;;5040375;28;20205;-68
2021/01/30 03:27:05;;;;;;;2.70;1.10;;;3.80;93.00;11.00;97555.00;;;;5055560;28;20181;-68
2021/01/30 03:29:30;;;;;;;2.97;1.17;;;3.80;93.00;11.20;97561.00;;;;5053979;28;20244;-69
2021/01/30 03:31:56;;;;;;;3.00;1.40;;;3.80;93.00;10.90;97536.00;;;;5071648;28;20208;-68
2021/01/30 03:34:22;;;;;;;2.90;1.10;;;3.90;93.40;11.20;97547.00;;;;5054078;28;20514;-68
2021/01/30 03:36:47;;;;;;;2.80;1.00;;;3.90;93.00;11.20;97547.00;;;;5069356;28;20675;-69
2021/01/30 03:39:16;;;;;;;2.80;0.97;;;3.80;93.00;11.10;97537.00;;;;5054717;28;20205;-68
2021/01/30 03:41:42;;;;;;;2.65;0.95;;;3.80;93.30;11.10;97535.00;;;;5037959;28;20315;-68
2021/01/30 03:44:09;;;;;;;2.70;1.00;;;3.90;93.00;11.20;97540.00;;;;5070838;28;20201;-68
2021/01/30 03:46:34;;;;;;;3.03;1.15;;;3.80;92.90;11.30;97540.00;;;;5054237;28;20193;-68
2021/01/30 03:49:00;;;;;;;2.67;0.90;;;3.80;93.00;10.90;97538.00;;;;5071305;28;20206;-68
2021/01/30 03:51:26;;;;;;;3.17;0.93;;;3.80;93.00;11.10;97551.00;;;;5036919;28;20213;-69
2021/01/30 03:53:51;;;;;;;2.93;1.20;;;3.80;92.90;11.20;97555.00;;;;5070998;28;20223;-68
2021/01/30 03:56:17;;;;;;;2.80;1.10;;;3.90;93.00;11.30;97551.00;;;;5053853;28;20185;-69
2021/01/30 03:58:45;;;;;;;2.73;1.00;;;3.90;93.00;11.10;97545.00;;;;5054016;28;20228;-68
2021/01/30 04:01:11;;;;;;;2.75;1.08;;;3.90;93.00;11.30;97551.00;;;;5037690;28;20193;-68
2021/01/30 04:03:37;;;;;;;2.72;0.98;;;3.80;92.90;11.20;97558.00;;;;5037720;28;20249;-68
2021/01/30 04:06:03;;;;;;;2.90;1.10;;;3.90;93.00;11.00;97554.00;;;;5053813;28;20185;-69
2021/01/30 04:08:29;;;;;;;3.03;1.00;;;3.90;93.00;11.20;97556.00;;;;5053914;28;20208;-68
2021/01/30 04:10:55;;;;;;;3.40;1.20;;;3.90;93.00;11.30;97560.00;;;;5036642;28;20181;-68
2021/01/30 04:13:20;;;;;;;3.00;1.20;;;3.80;93.00;11.10;97552.00;;;;5037588;28;20339;-67
2021/01/30 04:15:46;;;;;;;2.70;0.93;;;3.90;93.00;11.10;97559.00;;;;5020815;28;20239;-67
2021/01/30 04:18:12;;;;;;;3.40;1.10;;;3.90;93.00;11.20;97560.00;;;;5070647;28;20189;-69
2021/01/30 04:20:39;;;;;;;2.60;0.88;;;3.90;93.00;11.10;97547.00;;;;5019957;28;20270;-68
2021/01/30 04:23:05;;;;;;;2.90;0.95;;;3.90;93.00;11.00;97564.00;;;;5053992;28;20193;-69
2021/01/30 04:25:31;;;;;;;2.70;0.95;;;3.90;93.00;11.10;97556.00;;;;5053381;28;20189;-70
2021/01/30 04:27:56;;;;;;;3.17;1.23;;;3.90;93.00;10.90;97555.00;;;;5053818;28;20185;-68
2021/01/30 04:30:25;;;;;;;3.03;1.03;;;3.90;93.00;11.00;97523.00;;;;5070669;28;20188;-68
2021/01/30 04:32:51;;;;;;;2.50;0.80;;;3.90;93.00;11.10;97560.00;;;;5069349;28;20221;-68
2021/01/30 04:35:22;;;;;;;2.60;1.00;;;3.80;92.90;11.10;97563.00;;;;5052457;28;20235;-68
2021/01/30 04:37:48;;;;;;;3.03;0.80;;;3.90;93.40;11.20;97563.00;;;;5037590;28;20213;-68
2021/01/30 04:40:34;;;;;;;2.90;1.00;;;3.90;93.00;11.20;97557.00;;;;5069844;28;20251;-68
2021/01/30 04:43:12;;;;;;;2.70;1.08;;;3.90;93.00;11.00;97555.00;;;;5039174;28;20268;-68
2021/01/30 04:46:05;;;;;;;2.97;1.00;;;3.80;93.00;10.90;97555.00;;;;5069776;28;20279;-68
2021/01/30 04:48:58;;;;;;;2.80;0.88;;;3.80;93.00;10.80;97551.00;;;;5069991;28;20227;-68
2021/01/30 04:52:08;;;;;;;2.63;0.88;;;3.90;93.00;11.00;97553.00;;;;5070721;28;20668;-68
2021/01/30 04:55:01;;;;;;;2.50;0.90;;;3.90;93.00;11.00;97543.00;;;;5056176;28;20212;-68
2021/01/30 04:58:00;;;;;;;2.55;0.93;;;3.80;93.00;11.00;97549.00;;;;5072184;28;20212;-68
2021/01/30 05:00:38;;;;;;;2.85;1.10;;;3.90;93.00;11.10;97547.00;;;;5055481;28;20177;-68
2021/01/30 05:03:33;;;;;;;2.50;0.82;;;3.80;93.00;11.00;97538.00;;;;5070053;28;20201;-67
2021/01/30 05:06:05;;;;;;;2.72;0.90;;;3.90;93.00;11.10;97543.00;;;;5041091;28;20178;-67
2021/01/30 05:08:45;;;;;;;2.90;0.88;;;3.90;93.00;11.10;97539.00;;;;5053085;28;20295;-68
2021/01/30 05:11:17;;;;;;;2.90;0.90;;;3.90;93.00;11.20;97535.00;;;;5037166;28;20191;-68
2021/01/30 05:14:14;;;;;;;3.70;1.10;;;3.90;93.00;10.90;97524.00;;;;5053337;28;20201;-68
2021/01/30 05:17:10;;;;;;;2.60;0.80;;;3.90;93.10;11.10;97520.00;;;;5069614;28;20628;-68
2021/01/30 05:19:43;;;;;;;2.75;1.13;;;3.90;93.10;11.20;97522.00;;;;5053995;28;20223;-68
2021/01/30 05:22:12;;;;;;;2.83;0.77;;;3.90;93.10;11.20;97529.00;;;;5035656;28;20256;-68
2021/01/30 05:24:38;;;;;;;2.97;1.10;;;3.90;93.10;11.10;97503.00;;;;5036457;28;20200;-68
2021/01/30 05:27:36;;;;;;;2.70;1.00;;;3.90;93.10;11.00;97520.00;;;;5069101;28;20177;-68
2021/01/30 05:30:12;;;;;;;2.55;0.80;;;3.80;93.10;11.10;97512.00;;;;5068486;28;20231;-67
2021/01/30 05:33:25;;;;;;;3.00;1.15;;;3.90;93.10;11.00;97520.00;;;;5020176;28;20747;-67
2021/01/30 05:36:32;;;;;;;3.90;1.08;;;3.90;93.10;11.20;97519.00;;;;5069670;28;20191;-68
2021/01/30 05:39:48;;;;;;;2.58;0.75;;;3.90;93.10;11.10;97485.00;;;;5069684;28;20443;-68
2021/01/30 05:42:32;;;;;;;3.58;0.95;;;3.90;93.10;11.10;97516.00;;;;5070018;28;20185;-67
2021/01/30 05:45:32;;;;;;;2.67;0.90;;;3.90;93.20;11.00;97528.00;;;;5054353;28;20197;-67
2021/01/30 05:47:58;;;;;;;2.42;0.60;;;3.90;93.20;11.20;97514.00;;;;5055933;28;20185;-68
2021/01/30 05:50:45;;;;;;;3.03;1.10;;;3.90;93.20;11.00;97514.00;;;;5051709;28;20181;-69
2021/01/30 05:53:14;;;;;;;2.60;0.88;;;3.90;93.20;11.00;97521.00;;;;5054075;28;20479;-68
2021/01/30 05:55:39;;;;;;;2.50;0.77;;;3.90;93.20;10.70;97525.00;;;;5036424;28;20181;-68
2021/01/30 05:58:15;;;;;;;2.73;0.80;;;3.90;93.20;11.10;97511.00;;;;5051609;28;20206;-67
2021/01/30 06:00:41;;;;;;;2.50;0.75;;;3.90;93.20;10.90;97516.00;;;;5069251;28;20200;-68
2021/01/30 06:03:15;;;;;;;2.85;0.82;;;3.90;93.20;10.90;97511.00;;;;5051505;28;20201;-67
2021/01/30 06:05:49;;;;;;;2.80;0.82;;;3.90;93.20;11.10;97518.00;;;;5036844;28;20192;-67
2021/01/30 06:08:20;;;;;;;2.70;0.80;;;3.80;93.20;11.00;97520.00;;;;5069885;28;20205;-67
2021/01/30 06:10:48;;;;;;;2.70;0.90;;;3.90;93.20;11.10;97517.00;;;;5035278;28;20660;-68
2021/01/30 06:13:25;;;;;;;2.40;0.70;;;3.90;93.20;11.00;97514.00;;;;5035820;28;20691;-67
2021/01/30 06:15:59;;;;;;;2.38;0.65;;;3.90;93.20;10.90;97512.00;;;;5052709;28;20181;-67
2021/01/30 06:18:38;;;;;;;2.80;0.95;;;3.90;93.20;11.10;97510.00;;;;5067641;28;20251;-68
2021/01/30 06:21:21;;;;;;;2.90;0.80;;;3.90;93.20;11.00;97500.00;;;;5052320;28;20212;-68
2021/01/30 06:24:09;;;;;;;2.45;0.60;;;3.90;93.20;10.90;97518.00;;;;5035308;28;20287;-68
2021/01/30 06:26:46;;;;;;;2.72;0.77;;;3.90;93.20;11.30;97509.00;;;;5037164;28;20193;-67
2021/01/30 06:29:42;;;;;;;2.85;0.95;;;3.90;93.30;11.40;97516.00;;;;5019044;28;20271;-67
2021/01/30 06:32:24;;;;;;;2.70;0.70;;;3.90;93.30;11.10;97519.00;;;;5020432;28;20255;-67
2021/01/30 06:35:18;;;;;;;2.80;0.70;;;3.90;93.30;11.40;97528.00;;;;5069118;28;20205;-67
2021/01/30 06:37:48;;;;;;;3.08;0.70;;;3.90;93.30;11.00;97520.00;;;;5071959;28;20647;-68
2021/01/30 06:40:27;;;;;;;2.40;0.70;;;3.90;93.30;10.90;97511.00;;;;5068027;28;20651;-68
2021/01/30 06:42:55;;;;;;;2.47;0.60;;;3.90;93.30;11.30;97515.00;;;;5035142;28;20185;-67
2021/01/30 06:45:39;;;;;;;2.60;0.77;;;3.90;93.30;11.50;97513.00;;;;5035187;28;20189;-68
2021/01/30 06:48:09;;;;;;;2.70;0.70;;;3.90;93.30;11.30;97514.00;;;;5019439;28;20201;-68
2021/01/30 06:50:39;;;;;;;2.55;0.85;;;3.90;93.30;11.20;97520.00;;;;5036397;28;20185;-68
2021/01/30 06:53:34;;;;;;;2.50;0.82;;;3.90;93.30;11.20;97503.00;;;;5067225;28;20240;-68
2021/01/30 06:56:27;;;;;;;2.70;0.90;;;3.90;93.30;11.20;97503.00;;;;5037150;28;20280;-68
2021/01/30 06:59:10;;;;;;;2.65;0.80;;;3.90;93.30;11.10;97497.00;;;;5053499;28;20695;-67
2021/01/30 07:01:46;;;;;;;2.40;0.60;;;3.90;93.40;11.30;97512.00;;;;5035874;28;20584;-68
2021/01/30 07:04:46;;;;;;;2.55;0.80;;;3.90;93.70;11.10;97510.00;;;;5034803;28;20262;-68
2021/01/30 07:07:39;;;;;;;3.03;0.80;;;3.90;93.40;11.10;97501.00;;;;5068638;28;20185;-68
2021/01/30 07:10:38;;;;;;;2.40;0.70;;;3.90;93.40;11.10;97524.00;;;;5055617;28;20204;-68
2021/01/30 07:13:49;;;;;;;2.40;0.80;;;3.90;93.40;10.90;97525.00;;;;5071490;28;20715;-68
2021/01/30 07:16:34;;;;;;;3.15;1.00;;;3.90;93.40;11.10;97530.00;;;;5061105;28;20189;-68
2021/01/30 07:19:20;;;;;;;2.42;0.60;;;3.90;93.40;11.10;97529.00;;;;5073202;28;20193;-67
2021/01/30 07:21:49;;;;;;;2.70;0.70;;;3.90;93.30;11.10;97533.00;;;;5056355;28;20177;-68
2021/01/30 07:24:25;;;;;;;2.90;0.80;;;3.90;93.30;11.00;97513.00;;;;5055373;28;20197;-68
2021/01/30 07:26:55;;;;;;;2.60;0.65;;;3.90;93.30;11.20;97522.00;;;;5055953;28;20179;-68
2021/01/30 07:29:51;;;;;;;2.83;0.70;;;3.90;93.30;11.20;97487.00;;;;5040852;28;20233;-67
2021/01/30 07:32:37;;;;;;;2.40;0.70;;;3.90;93.70;11.20;97529.00;;;;5058021;28;20237;-68
2021/01/30 07:35:24;;;;;;;2.70;0.80;;;3.90;93.30;11.20;97514.00;;;;5054962;28;20287;-68
2021/01/30 07:37:57;;;;;;;2.40;0.70;;;4.00;93.40;11.40;97523.00;;;;5038026;28;20204;-68
2021/01/30 07:40:44;;;;;;;2.42;0.60;;;3.90;93.30;11.40;97514.00;;;;5055893;28;20264;-68
2021/01/30 07:43:24;;;;;;;2.47;0.70;;;4.00;93.40;11.10;97501.00;;;;5055525;28;20289;-68
2021/01/30 07:46:19;;;;;;;2.70;0.65;;;4.00;93.40;11.30;97513.00;;;;5056463;28;20173;-68
2021/01/30 07:48:55;;;;;;;2.60;0.80;;;4.00;93.30;11.30;97528.00;;;;5040815;28;20208;-68
2021/01/30 07:51:39;;;;;;;2.78;0.70;;;4.00;93.40;11.20;97511.00;;;;5037950;28;20209;-68
2021/01/30 07:54:06;;;;;;;2.65;0.70;;;4.00;93.40;11.10;97503.00;;;;5038489;28;20197;-68
2021/01/30 07:57:24;;;;;;;2.90;0.80;;;4.00;93.40;11.10;97503.00;;;;5037869;28;20185;-68
2021/01/30 08:00:00;;;;;;;2.50;0.80;;;4.00;93.30;11.20;97494.00;;;;5060878;28;20289;-67
2021/01/30 08:02:50;;;;;;;2.60;0.70;;;4.00;93.40;11.20;97504.00;;;;5039122;28;20659;-68
2021/01/30 08:05:43;;;;;;;2.30;0.63;;;4.00;93.40;11.00;97512.00;;;;5087838;28;20188;-68
2021/01/30 08:08:26;;;;;;;2.30;0.50;;;4.00;93.40;11.10;97496.00;;;;5057590;28;20197;-68
2021/01/30 08:11:14;;;;;;;2.58;0.70;;;4.00;93.40;11.00;97499.00;;;;5055457;28;20188;-68
2021/01/30 08:13:56;;;;;;;2.80;0.77;;;4.00;93.40;11.30;97505.00;;;;5040078;28;20220;-68
2021/01/30 08:16:47;;;;;;;2.40;0.60;;;4.00;93.40;11.10;97511.00;;;;5056597;28;20280;-68
2021/01/30 08:19:45;;;;;;;2.42;0.60;;;4.00;93.30;10.90;97504.00;;;;5037073;28;20224;-67
2021/01/30 08:22:41;;;;;;;2.53;0.75;;;4.00;93.40;11.10;97493.00;;;;5043456;28;20197;-68
2021/01/30 08:25:16;;;;;;;2.65;0.65;;;4.00;93.30;11.00;97491.00;;;;5055700;28;20261;-68
2021/01/30 08:27:44;;;;;;;2.50;0.70;;;4.00;93.30;10.90;97479.00;;;;5039054;28;20192;-68
2021/01/30 08:30:21;;;;;;;2.50;0.80;;;4.00;93.30;11.20;97493.00;;;;5036637;28;20268;-68
2021/01/30 08:33:03;;;;;;;2.40;0.70;;;4.00;93.30;11.30;97469.00;;;;5036660;28;20204;-68
2021/01/30 08:35:28;;;;;;;3.08;0.70;;;4.00;93.30;11.20;97486.00;;;;5038183;28;20181;-68
2021/01/30 08:38:03;;;;;;;3.07;0.77;;;4.00;93.30;11.10;97479.00;;;;5071397;28;20200;-68
2021/01/30 08:40:52;;;;;;;2.70;1.02;;;4.00;93.30;11.20;97478.00;;;;5053873;28;20184;-68
2021/01/30 08:43:41;;;;;;;2.45;0.68;;;4.00;93.30;10.90;97485.00;;;;5070867;28;20205;-68
2021/01/30 08:46:38;;;;;;;3.00;1.00;;;4.00;93.30;11.00;97483.00;;;;5069721;28;20189;-67
2021/01/30 08:49:15;;;;;;;2.60;0.75;;;4.00;93.30;11.20;97474.00;;;;5051373;28;20235;-67
2021/01/30 08:51:46;;;;;;;2.70;0.90;;;4.00;93.30;11.30;97477.00;;;;5067900;28;20220;-68
2021/01/30 08:54:33;;;;;;;3.50;0.95;;;4.00;93.30;11.20;97475.00;;;;5017594;28;20193;-68
2021/01/30 08:57:00;;;;;;;3.17;1.15;;;4.10;93.40;11.30;97448.00;;;;5050789;28;20205;-67
2021/01/30 08:59:48;;;;;;;3.10;1.05;;;4.10;93.40;11.00;97468.00;;;;5051051;28;20602;-68
2021/01/30 09:02:29;;;;;;;2.90;1.00;;;4.00;93.30;11.30;97487.00;;;;5051705;28;20267;-68
2021/01/30 09:05:30;;;;;;;3.25;1.30;;;4.10;93.40;11.20;97480.00;;;;5085426;28;20202;-67
2021/01/30 09:07:58;;;;;;;3.15;1.20;;;4.10;93.40;11.20;97477.00;;;;5069677;28;20279;-68
2021/01/30 09:10:29;;;;;;;2.90;1.20;;;4.10;93.70;11.40;97474.00;;;;5036732;28;20177;-68
2021/01/30 09:13:06;;;;;;;3.10;1.02;;;4.10;93.40;11.30;97471.00;;;;5068966;28;20209;-67
2021/01/30 09:15:40;;;;;;;4.53;1.00;;;4.10;93.40;11.30;97471.00;;;;5070224;28;20212;-68
2021/01/30 09:18:38;;;;;;;2.97;0.95;;;4.10;93.40;11.30;97473.00;;;;5070804;28;20282;-67
2021/01/30 09:21:30;;;;;;;3.72;1.38;;;4.10;93.40;11.50;97474.00;;;;5038519;28;20598;-68
2021/01/30 09:24:18;;;;;;;3.38;1.00;;;4.10;93.40;11.30;97488.00;;;;5067825;28;20212;-67
2021/01/30 09:27:23;;;;;;;3.78;1.20;;;4.10;93.40;11.40;97488.00;;;;5062764;28;20192;-67
2021/01/30 09:29:50;;;;;;;3.47;1.20;;;4.10;93.40;11.20;97480.00;;;;5070238;28;20211;-67
2021/01/30 09:32:29;;;;;;;3.15;1.10;;;4.10;93.40;11.20;97482.00;;;;5051237;28;20236;-67
2021/01/30 09:35:04;;;;;;;3.65;1.27;;;4.10;93.40;11.30;97485.00;;;;5052594;28;20205;-67
2021/01/30 09:37:33;;;;;;;3.25;1.38;;;4.10;93.40;11.20;97490.00;;;;5037246;28;20277;-68
2021/01/30 09:40:00;;;;;;;3.65;1.45;;;4.10;93.40;11.20;97482.00;;;;5067543;28;20618;-68
2021/01/30 09:42:26;;;;;;;2.80;1.00;;;4.10;93.40;11.40;97493.00;;;;5051750;28;20184;-68
2021/01/30 09:45:11;;;;;;;3.88;1.48;;;4.10;93.40;11.50;97484.00;;;;5067789;28;20607;-67
2021/01/30 09:47:45;;;;;;;4.03;1.35;;;4.10;93.40;11.50;97478.00;;;;5068556;28;20196;-68
2021/01/30 09:50:16;;;;;;;3.40;1.40;;;4.20;93.40;11.40;97477.00;;;;5067220;28;20547;-67
2021/01/30 09:52:55;;;;;;;3.42;1.23;;;4.20;93.40;11.20;97469.00;;;;5068211;28;20224;-68
2021/01/30 09:55:21;;;;;;;3.45;1.23;;;4.20;93.40;11.50;97485.00;;;;5067208;28;20393;-68
2021/01/30 09:57:46;;;;;;;3.73;1.30;;;4.20;93.40;11.40;97445.00;;;;5035129;28;20210;-67
2021/01/30 10:00:26;;;;;;;3.20;1.50;;;4.20;93.40;11.60;97487.00;;;;5068635;28;20227;-69
2021/01/30 10:03:15;;;;;;;3.25;1.20;;;4.20;93.40;11.70;97479.00;;;;5067976;28;20258;-67
2021/01/30 10:05:41;;;;;;;3.55;1.30;;;4.20;93.40;11.60;97470.00;;;;5068004;28;20189;-68
2021/01/30 10:08:23;;;;;;;3.13;1.13;;;4.20;93.40;11.70;97481.00;;;;5068441;28;20197;-67
2021/01/30 10:11:03;;;;;;;3.40;1.20;;;4.20;93.40;11.60;97479.00;;;;5067798;28;20173;-68
2021/01/30 10:13:29;;;;;;;4.55;1.30;;;4.20;93.40;11.60;97472.00;;;;5068816;28;20248;-68
2021/01/30 10:15:55;;;;;;;4.23;1.67;;;4.20;93.80;11.40;97481.00;;;;5068152;28;20651;-68
2021/01/30 10:18:22;;;;;;;3.92;1.15;;;4.20;93.40;11.40;97467.00;;;;5051592;28;20262;-67
2021/01/30 10:20:59;;;;;;;3.10;1.20;;;4.20;93.40;11.50;97470.00;;;;5068639;28;20209;-68
2021/01/30 10:23:45;;;;;;;3.53;1.15;;;4.20;93.40;11.40;97468.00;;;;5051600;28;20258;-69
2021/01/30 10:26:22;;;;;;;3.30;1.15;;;4.20;93.40;11.50;97469.00;;;;5068464;28;20188;-68
2021/01/30 10:28:57;;;;;;;3.53;1.20;;;4.20;93.40;11.50;97461.00;;;;5068614;28;20714;-68
2021/01/30 10:31:40;;;;;;;3.45;1.25;;;4.20;93.40;11.70;97469.00;;;;5066049;28;20226;-68
2021/01/30 10:34:20;;;;;;;3.10;1.00;;;4.30;93.40;11.50;97461.00;;;;5068167;28;20826;-68
2021/01/30 10:36:56;;;;;;;3.20;1.23;;;4.20;93.40;11.40;97455.00;;;;5066911;28;20632;-68
2021/01/30 10:39:23;;;;;;;3.35;1.33;;;4.20;93.40;11.50;97459.00;;;;5049947;28;20396;-68
2021/01/30 10:41:49;;;;;;;3.40;1.30;;;4.30;93.50;11.60;97470.00;;;;5051822;28;20216;-68
2021/01/30 10:44:23;;;;;;;4.00;1.20;;;4.20;93.80;11.60;97449.00;;;;5037320;28;20216;-68
2021/01/30 10:46:51;;;;;;;2.90;1.10;;;4.30;93.80;11.60;97467.00;;;;5055493;28;20318;-67
2021/01/30 10:49:35;;;;;;;4.00;1.48;;;4.30;93.40;11.60;97461.00;;;;5039606;28;20703;-67
2021/01/30 10:52:24;;;;;;;3.60;1.08;;;4.30;93.40;11.40;97460.00;;;;5025510;28;20217;-68
2021/01/30 10:54:50;;;;;;;3.63;1.52;;;4.30;93.40;11.40;97472.00;;;;5056855;28;20197;-67
2021/01/30 10:57:19;;;;;;;3.43;1.30;;;4.30;93.40;11.60;97458.00;;;;5022858;28;20529;-68
2021/01/30 11:00:03;;;;;;;3.55;1.02;;;4.30;93.50;11.60;97471.00;;;;5067154;28;20242;-67
2021/01/30 11:02:45;;;;;;;2.70;0.85;;;4.30;93.50;11.50;97437.00;;;;5069942;28;20193;-68
2021/01/30 11:05:19;;;;;;;3.28;1.27;;;4.30;93.50;11.40;97462.00;;;;5072759;28;20576;-67
2021/01/30 11:07:51;;;;;;;3.05;1.10;;;4.30;93.50;11.50;97470.00;;;;5070782;28;20264;-67
2021/01/30 11:10:47;;;;;;;3.03;1.10;;;4.30;93.50;11.50;97536.00;;;;5054649;28;20188;-68
2021/01/30 11:13:19;;;;;;;3.30;1.20;;;4.40;93.50;11.60;97538.00;;;;5057779;28;20209;-67
2021/01/30 11:15:45;;;;;;;3.15;0.90;;;4.30;93.40;11.70;97551.00;;;;5070785;28;20181;-68
2021/01/30 11:18:37;;;;;;;3.05;1.30;;;4.40;93.50;11.60;97562.00;;;;5053193;28;20201;-67
2021/01/30 11:21:04;;;;;;;3.10;1.08;;;4.40;93.50;11.60;97567.00;;;;5070336;28;20189;-68
2021/01/30 11:23:41;;;;;;;2.95;1.02;;;4.30;93.40;11.60;97581.00;;;;5037912;28;20262;-68
2021/01/30 11:26:30;;;;;;;3.30;1.30;;;4.40;93.50;11.60;97576.00;;;;5055421;28;20560;-68
2021/01/30 11:28:57;;;;;;;5.68;1.00;;;4.30;93.40;11.60;97574.00;;;;5071709;28;20284;-68
2021/01/30 11:31:23;;;;;;;3.60;1.05;;;4.30;93.40;11.50;97592.00;;;;5053880;28;20228;-68
2021/01/30 11:33:51;;;;;;;3.47;1.40;;;4.30;93.50;11.70;97603.00;;;;5054158;28;20344;-68
2021/01/30 11:36:17;;;;;;;2.80;0.80;;;4.30;93.40;11.60;97594.00;;;;5054500;28;20259;-68
2021/01/30 11:38:44;;;;;;;3.00;0.93;;;4.30;93.50;11.60;97605.00;;;;5054228;28;20201;-67
2021/01/30 11:41:10;;;;;;;3.65;0.90;;;4.40;93.50;11.70;97591.00;;;;5069725;28;20444;-68
2021/01/30 11:43:36;;;;;;;2.55;0.90;;;4.40;93.50;11.70;97612.00;;;;5054499;28;20205;-68